Time;durP1;ratioP1;P1;durP2;ratioP2;P2;SDS_P1;SDS_P2;PMS_P1;PMS_P2;Temp;Humidity;BMP_temperature;BMP_pressure;BME280_temperature;BME280_humidity;BME280_pressure;Samples;Min_cycle;Max_cycle;Signal;HPM_P1;HPM_P2
2022/01/13 00:01:52;;;;;;;44.42;27.07;;;;;;;0.61;88.88;102496.30;1711615;82;21069;-69
2022/01/13 00:04:18;;;;;;;42.05;25.55;;;;;;;0.59;88.86;102495.52;1711858;83;21022;-69
2022/01/13 00:06:45;;;;;;;46.13;23.05;;;;;;;0.56;88.85;102483.82;1704297;84;21002;-69
2022/01/13 00:09:11;;;;;;;40.00;20.95;;;;;;;0.54;88.82;102483.86;1686003;85;21086;-69
2022/01/13 00:11:37;;;;;;;39.10;20.37;;;;;;;0.51;88.79;102495.78;1686120;85;21192;-69
2022/01/13 00:22:25;;;;;;;35.60;19.55;;;;;;;0.48;88.69;102483.64;1697654;83;21601;-69
2022/01/13 00:24:48;;;;;;;46.70;22.85;;;;;;;0.49;88.67;102487.95;1729659;82;21136;-69
2022/01/13 00:27:14;;;;;;;42.70;22.07;;;;;;;0.50;88.67;102494.92;1700791;84;21065;-69
2022/01/13 00:29:43;;;;;;;41.90;22.13;;;;;;;0.50;88.66;102501.94;1737216;82;21949;-69
2022/01/13 00:32:09;;;;;;;44.23;22.17;;;;;;;0.48;88.62;102492.83;1703879;84;21034;-69
2022/01/13 00:34:36;;;;;;;39.53;20.27;;;;;;;0.48;88.61;102498.08;1753333;81;21091;-69
2022/01/13 00:37:02;;;;;;;43.08;22.90;;;;;;;0.50;88.58;102499.31;1734693;82;21241;-69
2022/01/13 00:39:28;;;;;;;44.53;22.05;;;;;;;0.50;88.58;102492.30;1716204;82;21485;-69
2022/01/13 00:41:54;;;;;;;39.60;21.65;;;;;;;0.52;88.57;102497.96;1716284;83;21546;-69
2022/01/13 00:44:21;;;;;;;40.33;22.58;;;;;;;0.53;88.54;102508.88;1737392;82;21463;-69
2022/01/13 00:46:55;;;;;;;49.20;26.55;;;;;;;0.55;88.50;102513.59;1754871;81;21039;-69
2022/01/13 00:49:17;;;;;;;48.78;26.48;;;;;;;0.55;88.50;102517.53;1737236;82;21037;-69
2022/01/13 00:51:43;;;;;;;40.05;23.18;;;;;;;0.55;88.47;102504.41;1737591;82;21569;-69
2022/01/13 00:54:10;;;;;;;46.60;23.75;;;;;;;0.55;88.47;102503.95;1734825;82;21488;-69
2022/01/13 00:56:36;;;;;;;42.60;22.20;;;;;;;0.54;88.46;102477.75;1752948;81;21039;-69
2022/01/13 00:59:09;;;;;;;42.98;19.17;;;;;;;0.53;88.43;102469.02;1747984;81;21007;-69
2022/01/13 01:01:41;;;;;;;33.50;18.12;;;;;;;0.54;88.42;102460.69;1741644;82;21762;-69
2022/01/13 01:04:07;;;;;;;29.32;15.90;;;;;;;0.55;88.39;102449.28;1741348;82;21297;-69
2022/01/13 01:06:34;;;;;;;30.15;17.05;;;;;;;0.55;88.38;102442.72;1742549;82;20995;-69
2022/01/13 01:09:00;;;;;;;36.03;18.67;;;;;;;0.55;88.34;102441.41;1742302;82;21027;-69
2022/01/13 01:11:26;;;;;;;38.05;19.80;;;;;;;0.55;88.34;102440.09;1742676;82;21043;-69
2022/01/13 01:13:57;;;;;;;31.55;19.92;;;;;;;0.53;88.32;102429.64;1742240;82;21163;-69
2022/01/13 01:16:23;;;;;;;36.65;21.00;;;;;;;0.54;88.30;102413.44;1739268;80;21050;-69
2022/01/13 01:19:03;;;;;;;34.98;23.70;;;;;;;0.54;88.29;102426.56;1727367;83;21093;-69
2022/01/13 01:29:01;;;;;;;33.23;16.80;;;;;;;0.59;88.22;102415.45;1733370;81;20995;-69
2022/01/13 01:31:27;;;;;;;29.52;17.57;;;;;;;0.60;88.20;102423.73;1751106;81;20986;-69
2022/01/13 01:34:01;;;;;;;32.85;15.83;;;;;;;0.60;88.20;102421.11;1756065;81;20999;-69
2022/01/13 01:36:18;;;;;;;38.50;19.52;;;;;;;0.60;88.19;102414.55;1731187;80;21505;-69
2022/01/13 01:38:47;;;;;;;29.72;15.58;;;;;;;0.60;88.18;102408.81;1721281;83;21137;-69
2022/01/13 01:41:12;;;;;;;33.28;14.25;;;;;;;0.61;88.15;102409.67;1721065;83;21446;-69
2022/01/13 01:43:38;;;;;;;30.65;14.07;;;;;;;0.63;88.13;102418.38;1721308;83;21542;-69
2022/01/13 01:46:04;;;;;;;28.47;13.78;;;;;;;0.63;88.12;102426.25;1721351;83;21471;-69
2022/01/13 01:48:34;;;;;;;28.55;13.65;;;;;;;0.64;88.10;102425.31;1721070;83;21045;-69
2022/01/13 01:50:58;;;;;;;28.32;15.10;;;;;;;0.65;88.08;102430.52;1721010;83;21517;-69
2022/01/13 01:53:24;;;;;;;31.85;15.00;;;;;;;0.66;88.08;102426.13;1721074;83;20981;-69
2022/01/13 01:55:56;;;;;;;34.08;18.17;;;;;;;0.66;88.06;102428.30;1721357;83;21073;-69
2022/01/13 01:58:25;;;;;;;31.50;17.67;;;;;;;0.68;88.04;102422.98;1720967;82;20983;-70
2022/01/13 02:00:51;;;;;;;32.37;18.97;;;;;;;0.68;88.00;102429.54;1712731;83;21570;-69
2022/01/13 02:03:17;;;;;;;32.30;15.00;;;;;;;0.69;87.99;102426.01;1712897;83;21494;-69
2022/01/13 02:05:43;;;;;;;28.10;17.85;;;;;;;0.70;87.99;102432.98;1701945;84;21109;-69
2022/01/13 02:08:09;;;;;;;30.65;14.85;;;;;;;0.69;87.96;102426.01;1702173;84;21046;-69
2022/01/13 02:10:35;;;;;;;29.98;14.33;;;;;;;0.69;87.94;102423.38;1701872;82;21018;-69
2022/01/13 02:13:08;;;;;;;31.17;14.83;;;;;;;0.69;87.91;102425.55;1702308;84;21669;-69
2022/01/13 02:15:47;;;;;;;28.15;14.90;;;;;;;0.68;87.90;102417.27;1702053;84;21082;-69
2022/01/13 02:18:03;;;;;;;26.82;13.72;;;;;;;0.67;87.88;102416.03;1701361;83;21081;-69
2022/01/13 02:20:48;;;;;;;32.08;14.68;;;;;;;0.67;87.86;102417.34;1702221;82;21022;-69
2022/01/13 02:23:36;;;;;;;29.77;14.53;;;;;;;0.68;87.84;102428.22;1683317;84;21066;-69
2022/01/13 02:26:04;;;;;;;31.05;13.35;;;;;;;0.68;87.81;102438.27;1702036;84;21057;-69
2022/01/13 02:28:30;;;;;;;107.60;45.40;;;;;;;0.70;87.79;102429.05;1703808;81;21168;-69
2022/01/13 02:30:57;;;;;;;123.58;43.30;;;;;;;0.70;87.78;102428.59;1734088;81;21051;-69
2022/01/13 02:33:23;;;;;;;150.03;44.18;;;;;;;0.71;87.77;102429.42;1734784;82;21064;-69
2022/01/13 02:35:49;;;;;;;46.63;21.25;;;;;;;0.72;87.77;102421.95;1734841;82;20988;-69
2022/01/13 02:38:15;;;;;;;43.58;21.95;;;;;;;0.72;87.75;102427.20;1734944;82;21558;-69
2022/01/13 02:40:41;;;;;;;47.78;23.55;;;;;;;0.72;87.73;102433.31;1741211;81;21921;-69
2022/01/13 02:43:08;;;;;;;45.85;23.15;;;;;;;0.73;87.72;102422.36;1768246;81;21050;-69
2022/01/13 02:45:38;;;;;;;40.73;21.50;;;;;;;0.73;87.71;102423.67;1734275;82;21572;-69
2022/01/13 02:50:48;;;;;;;27.67;14.15;;;;;;;0.75;87.71;102412.19;1734620;82;21042;-69
2022/01/13 02:53:13;;;;;;;29.77;14.78;;;;;;;0.76;87.68;102409.11;1703651;84;21180;-69
2022/01/13 02:55:39;;;;;;;26.95;15.30;;;;;;;0.77;87.66;102402.95;1734451;82;21089;-69
2022/01/13 02:58:07;;;;;;;35.83;16.73;;;;;;;0.77;87.62;102384.58;1703238;84;21015;-69
2022/01/13 03:00:33;;;;;;;36.68;18.05;;;;;;;0.78;87.64;102388.89;1725259;82;21050;-69
2022/01/13 03:02:59;;;;;;;31.77;17.73;;;;;;;0.77;87.62;102388.06;1757017;81;21069;-69
2022/01/13 03:05:25;;;;;;;29.05;14.95;;;;;;;0.78;87.64;102387.58;1733003;82;21146;-69
2022/01/13 03:07:52;;;;;;;31.75;16.67;;;;;;;0.78;87.61;102375.76;1733173;82;20995;-69
2022/01/13 03:10:19;;;;;;;31.33;19.70;;;;;;;0.81;87.61;102373.05;1754590;81;20996;-69
2022/01/13 03:12:45;;;;;;;36.88;20.10;;;;;;;0.82;87.60;102374.73;1754668;81;21085;-69
2022/01/13 03:15:11;;;;;;;34.58;17.98;;;;;;;0.84;87.60;102378.17;1733143;82;21038;-69
2022/01/13 03:17:37;;;;;;;39.20;23.30;;;;;;;0.84;87.60;102363.73;1733143;82;21132;-69
2022/01/13 03:20:05;;;;;;;44.08;27.98;;;;;;;0.85;87.62;102365.42;1738898;82;21018;-69
2022/01/13 03:22:31;;;;;;;48.45;27.85;;;;;;;0.88;87.60;102364.02;1738807;82;21053;-69
2022/01/13 03:24:57;;;;;;;51.83;28.98;;;;;;;0.88;87.61;102356.13;1739130;82;21018;-69
2022/01/13 03:27:29;;;;;;;36.15;20.70;;;;;;;0.87;87.60;102355.27;1739072;82;21029;-69
2022/01/13 03:29:51;;;;;;;38.30;19.20;;;;;;;0.87;87.62;102344.77;1740402;82;21091;-70
2022/01/13 03:32:17;;;;;;;41.08;18.62;;;;;;;0.89;87.60;102344.69;1742840;82;21483;-69
2022/01/13 03:34:43;;;;;;;34.33;17.90;;;;;;;0.91;87.62;102332.38;1743108;82;21653;-69
2022/01/13 03:37:09;;;;;;;37.58;18.30;;;;;;;0.93;87.60;102335.78;1742544;82;21337;-69
2022/01/13 03:39:35;;;;;;;35.28;18.15;;;;;;;0.94;87.60;102340.12;1742818;82;21053;-69
2022/01/13 03:42:03;;;;;;;38.78;19.35;;;;;;;0.96;87.62;102340.91;1742870;82;21242;-69
2022/01/13 03:44:29;;;;;;;40.92;20.57;;;;;;;0.95;87.64;102333.97;1742735;82;20986;-69
2022/01/13 03:47:01;;;;;;;40.28;18.35;;;;;;;0.96;87.64;102331.72;1743057;82;21013;-69
2022/01/13 03:49:26;;;;;;;41.88;18.87;;;;;;;0.98;87.67;102329.91;1742786;82;21031;-69
2022/01/13 03:52:02;;;;;;;41.30;20.50;;;;;;;1.00;87.66;102331.99;1741859;82;21050;-69
2022/01/13 03:54:38;;;;;;;42.55;20.32;;;;;;;1.02;87.65;102330.18;1742700;82;21830;-69
2022/01/13 03:57:44;;;;;;;40.45;21.40;;;;;;;1.02;87.68;102314.41;1742626;82;21069;-69
2022/01/13 04:00:46;;;;;;;43.30;22.82;;;;;;;1.03;87.69;102310.85;1744911;81;21053;-69
2022/01/13 04:03:12;;;;;;;45.33;23.73;;;;;;;1.06;87.71;102316.42;1704899;84;21097;-69
2022/01/13 04:06:08;;;;;;;50.80;24.72;;;;;;;1.07;87.72;102312.44;1768382;81;21016;-69
2022/01/13 04:08:35;;;;;;;38.92;19.75;;;;;;;1.07;87.72;102311.13;1742521;81;21126;-69
2022/01/13 04:11:09;;;;;;;36.50;19.75;;;;;;;1.09;87.75;102309.28;1734037;82;21034;-69
2022/01/13 04:16:27;;;;;;;39.20;19.50;;;;;;;1.12;87.76;102311.81;1734365;82;21050;-69
2022/01/13 04:18:54;;;;;;;39.40;19.15;;;;;;;1.12;87.79;102313.12;1705010;83;21058;-69
2022/01/13 04:21:21;;;;;;;45.83;21.80;;;;;;;1.13;87.78;102299.05;1708564;84;21497;-69
2022/01/13 04:23:47;;;;;;;43.20;21.90;;;;;;;1.16;87.81;102306.80;1657629;84;21035;-69
2022/01/13 04:26:18;;;;;;;52.58;23.77;;;;;;;1.17;87.82;102305.89;1676856;85;21070;-69
2022/01/13 04:28:41;;;;;;;57.30;27.10;;;;;;;1.19;87.84;102301.90;1737267;82;21051;-69
2022/01/13 04:31:07;;;;;;;53.23;25.30;;;;;;;1.20;87.84;102304.44;1737615;82;21032;-69
2022/01/13 04:33:35;;;;;;;59.83;31.15;;;;;;;1.22;87.86;102309.20;1737618;82;21165;-70
2022/01/13 04:36:02;;;;;;;50.85;25.17;;;;;;;1.24;87.88;102304.72;1737937;82;21028;-69
2022/01/13 04:38:28;;;;;;;53.90;27.70;;;;;;;1.25;87.88;102300.32;1737837;82;20996;-69
2022/01/13 04:40:56;;;;;;;58.02;30.30;;;;;;;1.27;87.90;102295.39;1737676;82;21000;-69
2022/01/13 04:43:23;;;;;;;61.95;27.58;;;;;;;1.28;87.91;102293.16;1738050;82;20996;-69
2022/01/13 04:45:50;;;;;;;52.20;25.55;;;;;;;1.30;87.92;102282.60;1737603;82;21076;-69
2022/01/13 04:48:16;;;;;;;48.38;24.92;;;;;;;1.31;87.94;102279.89;1737876;82;21524;-69
2022/01/13 04:50:42;;;;;;;55.23;23.30;;;;;;;1.32;87.96;102293.89;1737863;82;20992;-69
2022/01/13 04:53:08;;;;;;;46.70;22.60;;;;;;;1.32;87.95;102286.86;1737672;82;21027;-69
2022/01/13 04:55:36;;;;;;;43.48;21.40;;;;;;;1.35;87.97;102283.25;1739509;81;21008;-69
2022/01/13 04:58:03;;;;;;;48.02;20.92;;;;;;;1.35;88.00;102272.27;1767936;81;21505;-69
2022/01/13 05:00:29;;;;;;;50.78;23.27;;;;;;;1.36;87.99;102272.68;1758917;81;20982;-70
2022/01/13 05:02:56;;;;;;;51.73;22.37;;;;;;;1.38;88.03;102273.91;1735190;82;20993;-69
2022/01/13 05:05:22;;;;;;;52.75;25.23;;;;;;;1.39;88.04;102269.92;1745424;82;21474;-69
2022/01/13 05:07:48;;;;;;;62.73;31.75;;;;;;;1.40;88.05;102261.13;1750101;82;21033;-70
2022/01/13 05:10:15;;;;;;;57.43;27.30;;;;;;;1.40;88.06;102251.92;1749963;82;21134;-69
2022/01/13 05:12:43;;;;;;;49.18;26.95;;;;;;;1.42;88.09;102238.70;1749963;82;20879;-69
2022/01/13 05:15:15;;;;;;;50.40;26.42;;;;;;;1.43;88.09;102247.84;1749862;82;20973;-70
2022/01/13 05:20:19;;;;;;;66.05;31.05;;;;;;;1.48;88.13;102253.73;1749996;82;21026;-69
2022/01/13 05:22:43;;;;;;;71.50;33.40;;;;;;;1.50;88.11;102255.86;1750007;82;21548;-69
2022/01/13 05:25:09;;;;;;;59.45;30.48;;;;;;;1.51;88.12;102258.86;1749992;82;20977;-69
2022/01/13 05:27:35;;;;;;;66.47;29.60;;;;;;;1.51;88.16;102256.23;1749922;82;20961;-69
2022/01/13 05:30:03;;;;;;;71.85;30.80;;;;;;;1.51;88.17;102256.23;1749888;82;21483;-69
2022/01/13 05:32:30;;;;;;;62.90;27.98;;;;;;;1.52;88.18;102253.14;1749840;82;20947;-69
2022/01/13 05:34:56;;;;;;;57.25;26.57;;;;;;;1.54;88.20;102267.55;1749646;82;21152;-69
2022/01/13 05:37:22;;;;;;;48.60;23.02;;;;;;;1.55;88.20;102264.02;1748785;82;21470;-69
2022/01/13 05:39:48;;;;;;;51.75;24.40;;;;;;;1.56;88.21;102257.80;1750283;82;21069;-69
2022/01/13 05:42:13;;;;;;;51.70;25.27;;;;;;;1.57;88.21;102263.47;1750045;82;20894;-69
2022/01/13 05:44:39;;;;;;;56.02;25.70;;;;;;;1.59;88.24;102268.19;1750148;82;20875;-69
2022/01/13 05:47:06;;;;;;;56.88;27.30;;;;;;;1.59;88.25;102262.92;1750297;82;21325;-69
2022/01/13 05:49:32;;;;;;;64.37;30.23;;;;;;;1.59;88.27;102260.30;1769945;80;21014;-69
2022/01/13 05:51:58;;;;;;;66.97;33.65;;;;;;;1.59;88.28;102253.27;1781313;80;20999;-69
2022/01/13 05:54:24;;;;;;;60.12;31.17;;;;;;;1.59;88.29;102257.22;1781036;80;20999;-69
2022/01/13 05:56:50;;;;;;;55.80;29.02;;;;;;;1.61;88.29;102261.96;1754573;80;21080;-70
2022/01/13 05:59:16;;;;;;;65.42;33.40;;;;;;;1.62;88.32;102250.98;1750071;81;22193;-69
2022/01/13 06:01:43;;;;;;;71.12;35.50;;;;;;;1.63;88.32;102244.79;1739879;81;21051;-69
2022/01/13 06:04:09;;;;;;;59.77;28.07;;;;;;;1.62;88.34;102239.16;1739707;81;21090;-69
2022/01/13 06:06:34;;;;;;;57.03;27.62;;;;;;;1.61;88.37;102238.30;1739547;82;20880;-70
2022/01/13 06:09:00;;;;;;;55.52;25.48;;;;;;;1.62;88.39;102237.84;1740049;82;20882;-70
2022/01/13 06:11:36;;;;;;;54.20;25.40;;;;;;;1.62;88.40;102243.10;1716558;83;21885;-70
2022/01/13 06:13:54;;;;;;;57.67;25.95;;;;;;;1.63;88.43;102251.36;1702589;84;21045;-69
2022/01/13 06:16:21;;;;;;;58.83;27.87;;;;;;;1.63;88.43;102249.59;1704351;84;21038;-70
2022/01/13 06:18:47;;;;;;;55.45;22.35;;;;;;;1.66;88.44;102238.93;1704364;84;21063;-70
2022/01/13 06:21:13;;;;;;;54.50;26.17;;;;;;;1.66;88.45;102220.98;1704110;84;20904;-70
2022/01/13 06:23:39;;;;;;;61.92;27.93;;;;;;;1.67;88.46;102224.02;1704400;84;21206;-69
2022/01/13 06:26:06;;;;;;;70.97;35.98;;;;;;;1.67;88.49;102221.39;1707957;83;21627;-69
2022/01/13 06:28:32;;;;;;;58.73;28.52;;;;;;;1.67;88.50;102216.98;1721373;82;21001;-70
2022/01/13 06:30:58;;;;;;;46.20;24.60;;;;;;;1.68;88.52;102209.95;1710940;82;21535;-70
2022/01/13 06:33:24;;;;;;;58.35;29.85;;;;;;;1.69;88.56;102210.36;1711252;82;21041;-70
2022/01/13 06:35:51;;;;;;;49.85;26.52;;;;;;;1.70;88.58;102210.72;1714082;82;21147;-69
2022/01/13 06:38:17;;;;;;;59.18;32.63;;;;;;;1.71;88.60;102215.07;1703829;84;21022;-69
2022/01/13 06:40:43;;;;;;;51.65;25.25;;;;;;;1.72;88.61;102210.22;1703729;84;21010;-69
2022/01/13 06:43:09;;;;;;;52.17;24.67;;;;;;;1.73;88.62;102197.44;1703782;83;21011;-69
2022/01/13 06:45:36;;;;;;;52.27;24.67;;;;;;;1.76;88.66;102200.78;1723328;82;21102;-70
2022/01/13 06:48:03;;;;;;;49.23;24.15;;;;;;;1.75;88.69;102208.30;1700596;84;21155;-70
2022/01/13 06:50:29;;;;;;;48.40;24.32;;;;;;;1.75;88.71;102208.75;1729783;82;21573;-70
2022/01/13 06:52:56;;;;;;;47.20;20.82;;;;;;;1.76;88.74;102208.67;1721709;81;21516;-69
2022/01/13 06:55:23;;;;;;;45.73;20.70;;;;;;;1.76;88.77;102206.04;1723232;83;21069;-69
2022/01/13 06:57:49;;;;;;;42.05;20.30;;;;;;;1.79;88.80;102199.81;1720764;81;21090;-69
2022/01/13 07:00:15;;;;;;;40.75;20.10;;;;;;;1.79;88.81;102191.92;1727769;81;21110;-70
2022/01/13 07:02:41;;;;;;;44.00;21.45;;;;;;;1.80;88.83;102198.86;1757307;81;21034;-69
2022/01/13 07:05:08;;;;;;;57.90;25.92;;;;;;;1.80;88.85;102193.60;1757497;81;21048;-70
2022/01/13 07:07:36;;;;;;;57.03;29.65;;;;;;;1.81;88.89;102198.80;1757515;81;21032;-69
2022/01/13 07:10:04;;;;;;;58.55;27.00;;;;;;;1.81;88.90;102190.91;1757799;81;21005;-69
2022/01/13 07:12:30;;;;;;;60.70;31.17;;;;;;;1.81;88.93;102202.75;1757566;81;21202;-70
2022/01/13 07:14:57;;;;;;;59.95;29.27;;;;;;;1.82;88.93;102218.08;1757908;81;21041;-70
2022/01/13 07:17:24;;;;;;;59.38;30.55;;;;;;;1.83;88.95;102238.20;1757798;81;21021;-69
2022/01/13 07:19:51;;;;;;;51.92;26.35;;;;;;;1.83;88.99;102245.61;1757541;81;21014;-69
2022/01/13 07:22:18;;;;;;;39.35;22.30;;;;;;;1.84;88.99;102251.72;1739874;82;21668;-69
2022/01/13 07:24:44;;;;;;;48.83;23.75;;;;;;;1.85;89.02;102256.08;1754705;81;21065;-70
2022/01/13 07:27:10;;;;;;;41.35;21.23;;;;;;;1.85;89.03;102259.56;1761075;81;20994;-70
2022/01/13 07:29:36;;;;;;;51.02;23.45;;;;;;;1.85;89.04;102258.70;1760997;81;20981;-70
2022/01/13 07:32:03;;;;;;;45.23;21.45;;;;;;;1.86;89.05;102251.22;1730897;81;21399;-70
2022/01/13 07:34:29;;;;;;;50.50;25.48;;;;;;;1.85;89.08;102241.61;1730371;82;21037;-70
2022/01/13 07:36:56;;;;;;;45.85;21.85;;;;;;;1.86;89.08;102247.27;1730764;82;21132;-69
2022/01/13 07:39:22;;;;;;;45.20;24.15;;;;;;;1.85;89.08;102251.67;1732046;80;21496;-69
2022/01/13 07:41:48;;;;;;;50.15;25.90;;;;;;;1.86;89.10;102258.65;1771978;80;21517;-70
2022/01/13 07:44:15;;;;;;;47.62;21.55;;;;;;;1.86;89.12;102262.59;1761036;81;20926;-70
2022/01/13 07:46:41;;;;;;;43.90;22.37;;;;;;;1.85;89.11;102262.65;1744103;81;21053;-69
2022/01/13 07:49:07;;;;;;;49.05;27.37;;;;;;;1.86;89.13;102267.85;1731516;80;21143;-69
2022/01/13 07:51:33;;;;;;;49.03;24.30;;;;;;;1.87;89.13;102266.05;1704568;82;21377;-69
2022/01/13 07:53:59;;;;;;;52.45;26.93;;;;;;;1.86;89.15;102270.48;1701913;84;21864;-69
2022/01/13 07:56:25;;;;;;;56.25;25.60;;;;;;;1.87;89.14;102254.22;1708771;84;21078;-69
2022/01/13 07:58:51;;;;;;;50.75;27.67;;;;;;;1.88;89.17;102271.72;1760663;81;21033;-69
2022/01/13 08:01:17;;;;;;;60.70;27.65;;;;;;;1.86;89.17;102272.25;1753236;80;21584;-69
2022/01/13 08:03:43;;;;;;;59.58;29.42;;;;;;;1.87;89.17;102275.25;1755223;80;21500;-69
2022/01/13 08:06:09;;;;;;;50.70;23.73;;;;;;;1.85;89.18;102270.08;1756523;81;21056;-69
2022/01/13 08:08:35;;;;;;;47.43;23.27;;;;;;;1.87;89.18;102268.22;1746595;81;21564;-69
2022/01/13 08:11:04;;;;;;;43.58;21.35;;;;;;;1.87;89.19;102255.53;1750639;81;21065;-69
2022/01/13 08:13:30;;;;;;;51.73;24.75;;;;;;;1.87;89.18;102263.42;1739895;81;21148;-69
2022/01/13 08:15:58;;;;;;;48.02;23.12;;;;;;;1.86;89.20;102250.75;1750081;81;21494;-69
2022/01/13 08:21:08;;;;;;;52.53;24.18;;;;;;;1.87;89.23;102248.95;1756805;80;21097;-70
2022/01/13 08:23:34;;;;;;;50.00;26.40;;;;;;;1.86;89.22;102240.69;1747670;81;21024;-70
2022/01/13 08:26:00;;;;;;;61.95;32.70;;;;;;;1.88;89.23;102248.04;1758737;79;21117;-70
2022/01/13 08:28:28;;;;;;;57.38;26.87;;;;;;;1.89;89.23;102247.13;1758495;81;21052;-69
2022/01/13 08:30:57;;;;;;;61.60;27.40;;;;;;;1.90;89.22;102256.25;1743134;81;21044;-69
2022/01/13 08:33:23;;;;;;;54.60;29.70;;;;;;;1.91;89.24;102247.89;1753725;81;21114;-70
2022/01/13 08:35:51;;;;;;;58.90;30.97;;;;;;;1.91;89.24;102248.75;1756966;81;21468;-69
2022/01/13 08:38:19;;;;;;;84.40;36.90;;;;;;;1.92;89.25;102243.03;1754122;80;21941;-69
2022/01/13 08:40:53;;;;;;;59.35;28.70;;;;;;;1.93;89.25;102243.44;1752189;79;21087;-69
2022/01/13 08:43:19;;;;;;;46.50;23.20;;;;;;;1.93;89.26;102240.34;1750021;81;21463;-69
2022/01/13 08:45:45;;;;;;;47.75;23.60;;;;;;;1.94;89.25;102241.17;1723178;81;21078;-70
2022/01/13 08:48:11;;;;;;;40.95;21.17;;;;;;;1.94;89.26;102233.28;1757118;79;21455;-70
2022/01/13 08:50:37;;;;;;;64.27;29.55;;;;;;;1.93;89.26;102239.03;1750010;79;22151;-70
2022/01/13 08:53:05;;;;;;;46.35;23.90;;;;;;;1.93;89.26;102246.07;1754496;81;20991;-69
2022/01/13 08:55:32;;;;;;;39.13;21.35;;;;;;;1.93;89.26;102250.02;1752902;81;22258;-69
2022/01/13 08:57:58;;;;;;;47.43;22.22;;;;;;;1.93;89.27;102252.19;1752612;80;21066;-69
2022/01/13 09:00:24;;;;;;;48.40;21.73;;;;;;;1.93;89.28;102242.98;1754099;80;20911;-69
2022/01/13 09:02:50;;;;;;;54.18;26.95;;;;;;;1.94;89.27;102235.91;1741506;81;21152;-69
2022/01/13 09:05:17;;;;;;;72.22;32.00;;;;;;;1.96;89.27;102239.34;1716836;81;21019;-70
2022/01/13 09:07:43;;;;;;;75.10;37.35;;;;;;;1.97;89.28;102223.97;1673359;84;21641;-71
2022/01/13 09:10:10;;;;;;;61.85;27.85;;;;;;;1.95;89.29;102222.70;1698538;82;21067;-70
2022/01/13 09:12:36;;;;;;;81.15;37.98;;;;;;;1.98;89.28;102221.70;1688028;82;21034;-70
2022/01/13 09:15:15;;;;;;;70.45;35.95;;;;;;;1.99;89.29;102227.36;1692909;82;21091;-69
2022/01/13 09:17:32;;;;;;;67.22;30.95;;;;;;;2.00;89.28;102215.92;1703525;82;21057;-70
2022/01/13 09:19:59;;;;;;;71.55;29.50;;;;;;;2.01;89.29;102218.92;1715081;82;21056;-70
2022/01/13 09:22:25;;;;;;;71.15;30.77;;;;;;;2.03;89.31;102215.78;1713832;81;21064;-70
2022/01/13 09:24:51;;;;;;;87.62;35.58;;;;;;;2.04;89.30;102207.43;1711151;82;21556;-70
2022/01/13 09:27:17;;;;;;;62.23;25.50;;;;;;;2.07;89.31;102223.07;1719343;81;21937;-70
2022/01/13 09:29:43;;;;;;;71.35;28.35;;;;;;;2.09;89.31;102212.00;1704415;82;21050;-70
2022/01/13 09:32:09;;;;;;;58.23;26.62;;;;;;;2.11;89.32;102217.57;1714444;81;21044;-70
2022/01/13 09:34:37;;;;;;;69.55;29.77;;;;;;;2.14;89.31;102196.86;1713829;81;21518;-70
2022/01/13 09:37:03;;;;;;;58.73;23.95;;;;;;;2.16;89.31;102205.06;1724241;81;21035;-70
2022/01/13 09:39:29;;;;;;;53.52;22.22;;;;;;;2.19;89.32;102204.92;1716526;81;21151;-70
2022/01/13 09:41:55;;;;;;;44.00;21.42;;;;;;;2.20;89.31;102196.11;1712974;81;21608;-70
2022/01/13 09:44:21;;;;;;;42.33;23.05;;;;;;;2.23;89.29;102183.25;1714991;81;21628;-70
2022/01/13 09:46:48;;;;;;;55.35;23.95;;;;;;;2.24;89.28;102181.88;1722679;81;21023;-70
2022/01/13 09:49:14;;;;;;;54.33;25.60;;;;;;;2.26;89.29;102187.91;1718954;82;21027;-69
2022/01/13 09:51:44;;;;;;;49.00;24.35;;;;;;;2.27;89.25;102198.84;1714184;82;21150;-70
2022/01/13 09:54:08;;;;;;;49.73;23.15;;;;;;;2.30;89.27;102192.11;1701657;82;21901;-70
2022/01/13 09:56:34;;;;;;;46.30;22.80;;;;;;;2.31;89.27;102191.20;1670205;84;21633;-71
2022/01/13 09:59:00;;;;;;;43.75;21.30;;;;;;;2.31;89.25;102189.87;1712689;82;20895;-70
2022/01/13 10:01:26;;;;;;;40.28;19.98;;;;;;;2.31;89.26;102180.66;1716790;81;21074;-70
2022/01/13 10:03:52;;;;;;;38.80;18.32;;;;;;;2.34;89.26;102179.66;1732089;81;21478;-70
2022/01/13 10:06:20;;;;;;;36.30;18.20;;;;;;;2.34;89.25;102169.98;1727241;81;20999;-70
2022/01/13 10:08:57;;;;;;;36.17;17.85;;;;;;;2.34;89.24;102163.41;1704676;84;21129;-70
2022/01/13 10:11:48;;;;;;;38.30;20.43;;;;;;;2.36;89.24;102156.73;1723161;81;21066;-70
2022/01/13 10:16:23;;;;;;;37.00;16.50;;;;;;;2.36;89.20;102177.33;1695163;81;21042;-70
2022/01/13 10:16:49;;;;;;;36.65;18.30;;;;;;;2.38;89.21;102162.79;1734328;81;21089;-70
2022/01/13 10:19:36;;;;;;;35.78;18.57;;;;;;;2.39;89.21;102173.23;1737869;81;21046;-70
2022/01/13 10:22:11;;;;;;;46.50;25.17;;;;;;;2.39;89.21;102167.96;1728290;81;21030;-70
2022/01/13 10:24:39;;;;;;;99.07;38.83;;;;;;;2.38;89.19;102168.91;1706390;84;21022;-70
2022/01/13 10:27:13;;;;;;;109.15;46.08;;;;;;;2.41;89.20;102162.18;1708067;83;21058;-70
2022/01/13 10:29:44;;;;;;;147.15;60.52;;;;;;;2.42;89.18;102156.00;1707730;82;21713;-70
2022/01/13 10:32:18;;;;;;;142.85;57.45;;;;;;;2.43;89.17;102155.50;1731431;82;21011;-70
2022/01/13 10:34:48;;;;;;;93.15;45.48;;;;;;;2.43;89.18;102146.28;1738411;80;21647;-70
2022/01/13 10:37:19;;;;;;;92.15;43.23;;;;;;;2.45;89.16;102151.89;1734414;82;21539;-70
2022/01/13 10:40:02;;;;;;;75.72;35.03;;;;;;;2.47;89.17;102155.29;1729571;82;21026;-70
2022/01/13 10:45:12;;;;;;;41.60;22.90;;;;;;;2.53;89.16;102158.56;1734670;81;21084;-70
2022/01/13 10:47:40;;;;;;;49.50;23.65;;;;;;;2.54;89.16;102155.83;1733388;80;21415;-70
2022/01/13 10:50:12;;;;;;;75.45;32.17;;;;;;;2.53;89.12;102148.89;1740229;81;20991;-70
2022/01/13 10:52:38;;;;;;;97.85;38.95;;;;;;;2.54;89.14;102158.47;1729412;82;21018;-70
2022/01/13 10:55:13;;;;;;;120.92;43.15;;;;;;;2.54;89.13;102146.62;1733951;82;21727;-70
2022/01/13 10:57:42;;;;;;;107.20;35.15;;;;;;;2.54;89.12;102158.47;1737770;82;21015;-70
2022/01/13 11:00:21;;;;;;;85.42;33.38;;;;;;;2.56;89.11;102147.88;1732850;81;21047;-71
2022/01/13 11:02:49;;;;;;;149.30;55.25;;;;;;;2.57;89.11;102144.32;1736711;82;21087;-70
2022/01/13 11:05:15;;;;;;;88.85;38.42;;;;;;;2.59;89.09;102143.31;1713709;80;21007;-70
2022/01/13 11:07:42;;;;;;;51.73;25.12;;;;;;;2.62;89.09;102147.56;1732019;81;21116;-70
2022/01/13 11:10:09;;;;;;;47.60;23.40;;;;;;;2.63;89.09;102130.84;1737597;81;21523;-70
2022/01/13 11:12:39;;;;;;;49.33;22.70;;;;;;;2.62;89.06;102127.81;1738622;81;21054;-70
2022/01/13 11:15:13;;;;;;;42.40;22.80;;;;;;;2.63;89.07;102131.70;1738325;82;21043;-70
2022/01/13 11:17:40;;;;;;;43.98;20.60;;;;;;;2.66;89.06;102133.31;1735919;82;21241;-70
2022/01/13 11:20:09;;;;;;;44.93;21.23;;;;;;;2.67;89.05;102133.71;1742230;82;21143;-70
2022/01/13 11:22:38;;;;;;;48.70;22.03;;;;;;;2.66;89.04;102133.31;1733019;82;21030;-70
2022/01/13 11:25:07;;;;;;;40.63;19.23;;;;;;;2.61;89.02;102116.88;1753887;80;21781;-70
2022/01/13 11:27:33;;;;;;;44.63;19.35;;;;;;;2.68;89.01;102125.72;1742605;81;21033;-69
2022/01/13 11:30:00;;;;;;;48.25;23.95;;;;;;;2.70;89.02;102125.20;1745080;80;21043;-69
2022/01/13 11:32:26;;;;;;;40.43;21.33;;;;;;;2.72;89.00;102125.09;1741693;82;21877;-69
2022/01/13 11:34:55;;;;;;;46.30;20.75;;;;;;;2.74;88.99;102110.09;1741940;82;21041;-69
2022/01/13 11:37:30;;;;;;;49.08;24.65;;;;;;;2.76;89.00;102100.31;1738501;82;21070;-69
2022/01/13 11:39:56;;;;;;;52.33;26.82;;;;;;;2.78;88.96;102111.64;1740899;81;20987;-70
2022/01/13 11:42:22;;;;;;;52.78;22.82;;;;;;;2.82;88.98;102109.20;1742574;82;21102;-69
2022/01/13 11:45:14;;;;;;;47.78;23.40;;;;;;;2.84;88.96;102103.41;1742076;82;21141;-69
2022/01/13 11:47:40;;;;;;;54.13;26.82;;;;;;;2.88;88.96;102102.33;1742069;82;21519;-70
2022/01/13 11:50:21;;;;;;;44.55;26.00;;;;;;;2.91;88.93;102104.34;1719206;82;21499;-70